AAL241 KMIA-MDSD
Flight info
| Callsign | AAL241 |
|---|---|
| Flight time | 1h 46m |
| Altitude | 37000 |
| Route | KLADA2 JAGOR DCT RUMFO Y441 JUELE DCT KODIX KODIX2G |
| Aircraft | B738/M-SDE2E3FGHIRWXY/LB1 |
Departure
| Time | 2026-05-04 19:50 |
|---|---|
| Airport | Miami International Airport (KMIA) |
Arrival
| Time | 2026-05-04 21:36 |
|---|---|
| Airport | Las Américas International Airport (MDSD) |
| Time | Latitude | Longitude | Altitude | Speed | Heading |
|---|---|---|---|---|---|
| 2026-05-04 19:24 | 25.79775 | -80.28050 | 16 ft | 0 kts | 214° |
| 2026-05-04 19:37 | 25.79787 | -80.28041 | 16 ft | 2 kts | 216° |
| 2026-05-04 19:38 | 25.79801 | -80.28031 | 18 ft | 2 kts | 214° |
| 2026-05-04 19:38 | 25.79814 | -80.28020 | 15 ft | 2 kts | 213° |
| 2026-05-04 19:38 | 25.79828 | -80.28010 | 18 ft | 2 kts | 213° |
| 2026-05-04 19:38 | 25.79842 | -80.28000 | 15 ft | 2 kts | 212° |
| 2026-05-04 19:39 | 25.79856 | -80.27991 | 19 ft | 2 kts | 212° |
| 2026-05-04 19:39 | 25.79870 | -80.27981 | 16 ft | 2 kts | 214° |
| 2026-05-04 19:39 | 25.79879 | -80.27973 | 16 ft | 0 kts | 265° |
| 2026-05-04 19:42 | 25.79892 | -80.28024 | 13 ft | 11 kts | 290° |
| 2026-05-04 19:42 | 25.79900 | -80.28113 | 13 ft | 13 kts | 287° |
| 2026-05-04 19:43 | 25.79983 | -80.28150 | 14 ft | 14 kts | 347° |
| 2026-05-04 19:43 | 25.80040 | -80.28224 | 15 ft | 14 kts | 274° |
| 2026-05-04 19:43 | 25.80035 | -80.28339 | 15 ft | 16 kts | 268° |
| 2026-05-04 19:43 | 25.80030 | -80.28471 | 15 ft | 18 kts | 266° |
| 2026-05-04 19:44 | 25.80023 | -80.28611 | 19 ft | 18 kts | 268° |
| 2026-05-04 19:44 | 25.80017 | -80.28745 | 22 ft | 18 kts | 267° |
| 2026-05-04 19:44 | 25.80012 | -80.28887 | 21 ft | 20 kts | 268° |
| 2026-05-04 19:44 | 25.80005 | -80.29050 | 20 ft | 22 kts | 268° |
| 2026-05-04 19:45 | 25.79999 | -80.29218 | 21 ft | 22 kts | 268° |
| 2026-05-04 19:45 | 25.79992 | -80.29400 | 18 ft | 24 kts | 267° |
| 2026-05-04 19:45 | 25.79983 | -80.29595 | 14 ft | 26 kts | 267° |
| 2026-05-04 19:45 | 25.79975 | -80.29787 | 13 ft | 24 kts | 267° |
| 2026-05-04 19:46 | 25.79968 | -80.29951 | 11 ft | 14 kts | 268° |
| 2026-05-04 19:46 | 25.79968 | -80.29962 | 11 ft | 0 kts | 268° |
| 2026-05-04 19:48 | 25.79967 | -80.29977 | 12 ft | 9 kts | 268° |
| 2026-05-04 19:48 | 25.79979 | -80.30080 | 15 ft | 15 kts | 296° |
| 2026-05-04 19:48 | 25.80055 | -80.30116 | 15 ft | 14 kts | 33° |
| 2026-05-04 19:48 | 25.80077 | -80.30009 | 13 ft | 18 kts | 88° |
| 2026-05-04 19:49 | 25.80092 | -80.29661 | 14 ft | 73 kts | 87° |
| 2026-05-04 19:49 | 25.80125 | -80.28896 | 21 ft | 124 kts | 87° |
| 2026-05-04 19:49 | 25.80172 | -80.27773 | 21 ft | 166 kts | 85° |
| 2026-05-04 19:49 | 25.80210 | -80.26462 | 434 ft | 171 kts | 84° |
| 2026-05-04 19:50 | 25.80261 | -80.25134 | 968 ft | 177 kts | 91° |
| 2026-05-04 19:50 | 25.79747 | -80.23847 | 1334 ft | 187 kts | 116° |
| 2026-05-04 19:50 | 25.79088 | -80.22591 | 1729 ft | 195 kts | 113° |
| 2026-05-04 19:50 | 25.78397 | -80.21199 | 1899 ft | 215 kts | 114° |
| 2026-05-04 19:51 | 25.77646 | -80.19697 | 2044 ft | 230 kts | 114° |
| 2026-05-04 19:51 | 25.76846 | -80.18106 | 2262 ft | 241 kts | 115° |
| 2026-05-04 19:51 | 25.76024 | -80.16450 | 2378 ft | 246 kts | 115° |
| 2026-05-04 19:51 | 25.75479 | -80.15350 | 2425 ft | 245 kts | 115° |
| 2026-05-04 19:52 | 25.74665 | -80.13703 | 2516 ft | 242 kts | 115° |
| 2026-05-04 19:52 | 25.73860 | -80.12076 | 2644 ft | 240 kts | 115° |
| 2026-05-04 19:52 | 25.73096 | -80.10423 | 2754 ft | 242 kts | 109° |
| 2026-05-04 19:52 | 25.72492 | -80.08682 | 2890 ft | 243 kts | 106° |
| 2026-05-04 19:53 | 25.71925 | -80.06916 | 3011 ft | 243 kts | 105° |
| 2026-05-04 19:53 | 25.71361 | -80.05149 | 3120 ft | 243 kts | 105° |
| 2026-05-04 19:53 | 25.70790 | -80.03374 | 3247 ft | 249 kts | 105° |
| 2026-05-04 19:53 | 25.70186 | -80.01497 | 3412 ft | 266 kts | 107° |
| 2026-05-04 19:54 | 25.69552 | -79.99554 | 3897 ft | 270 kts | 108° |
| 2026-05-04 19:54 | 25.68898 | -79.97566 | 4369 ft | 277 kts | 108° |
| 2026-05-04 19:54 | 25.68233 | -79.95557 | 5013 ft | 280 kts | 109° |
| 2026-05-04 19:54 | 25.67551 | -79.93498 | 5454 ft | 289 kts | 109° |
| 2026-05-04 19:55 | 25.66859 | -79.91411 | 6090 ft | 288 kts | 110° |
| 2026-05-04 19:55 | 25.66161 | -79.89310 | 6574 ft | 293 kts | 110° |
| 2026-05-04 19:55 | 25.65449 | -79.87172 | 7021 ft | 298 kts | 111° |
| 2026-05-04 19:55 | 25.64730 | -79.85010 | 7569 ft | 299 kts | 111° |
| 2026-05-04 19:56 | 25.64004 | -79.82827 | 8023 ft | 305 kts | 111° |
| 2026-05-04 19:56 | 25.63266 | -79.80612 | 8519 ft | 308 kts | 111° |
| 2026-05-04 19:56 | 25.62521 | -79.78376 | 9008 ft | 312 kts | 112° |
| 2026-05-04 19:56 | 25.61764 | -79.76104 | 9480 ft | 316 kts | 112° |
| 2026-05-04 19:57 | 25.60997 | -79.73807 | 9979 ft | 319 kts | 112° |
| 2026-05-04 19:57 | 25.60220 | -79.71480 | 10295 ft | 329 kts | 112° |
| 2026-05-04 19:57 | 25.59365 | -79.69054 | 10361 ft | 346 kts | 116° |
| 2026-05-04 19:57 | 25.58307 | -79.66593 | 10500 ft | 361 kts | 119° |
| 2026-05-04 19:58 | 25.57134 | -79.64075 | 10644 ft | 374 kts | 120° |
| 2026-05-04 19:58 | 25.55910 | -79.61497 | 10909 ft | 382 kts | 120° |
| 2026-05-04 19:58 | 25.54659 | -79.58857 | 11128 ft | 392 kts | 120° |
| 2026-05-04 19:58 | 25.53382 | -79.56145 | 11354 ft | 401 kts | 120° |
| 2026-05-04 19:59 | 25.52087 | -79.53373 | 11588 ft | 409 kts | 120° |
| 2026-05-04 19:59 | 25.50772 | -79.50544 | 11808 ft | 417 kts | 120° |
| 2026-05-04 19:59 | 25.49438 | -79.47663 | 12037 ft | 424 kts | 120° |
| 2026-05-04 19:59 | 25.48104 | -79.44775 | 12260 ft | 430 kts | 120° |
| 2026-05-04 20:00 | 25.46715 | -79.41768 | 12493 ft | 436 kts | 120° |
| 2026-05-04 20:00 | 25.45348 | -79.38808 | 12719 ft | 439 kts | 120° |
| 2026-05-04 20:00 | 25.43960 | -79.35802 | 12937 ft | 440 kts | 120° |
| 2026-05-04 20:00 | 25.42567 | -79.32787 | 13162 ft | 441 kts | 120° |
| 2026-05-04 20:01 | 25.41168 | -79.29762 | 13398 ft | 442 kts | 120° |
| 2026-05-04 20:01 | 25.39762 | -79.26728 | 13626 ft | 443 kts | 120° |
| 2026-05-04 20:01 | 25.38357 | -79.23696 | 13912 ft | 443 kts | 120° |
| 2026-05-04 20:01 | 25.36949 | -79.20659 | 14158 ft | 444 kts | 120° |
| 2026-05-04 20:02 | 25.35539 | -79.17621 | 14410 ft | 445 kts | 120° |
| 2026-05-04 20:02 | 25.34120 | -79.14568 | 14663 ft | 447 kts | 120° |
| 2026-05-04 20:02 | 25.32698 | -79.11509 | 14913 ft | 449 kts | 120° |
| 2026-05-04 20:02 | 25.31265 | -79.08429 | 15177 ft | 451 kts | 120° |
| 2026-05-04 20:03 | 25.29825 | -79.05338 | 15435 ft | 454 kts | 120° |
| 2026-05-04 20:03 | 25.28379 | -79.02233 | 15697 ft | 456 kts | 120° |
| 2026-05-04 20:03 | 25.26923 | -78.99111 | 15960 ft | 458 kts | 120° |
| 2026-05-04 20:03 | 25.25463 | -78.95981 | 16234 ft | 459 kts | 120° |
| 2026-05-04 20:04 | 25.23995 | -78.92836 | 16498 ft | 461 kts | 120° |
| 2026-05-04 20:04 | 25.22525 | -78.89687 | 16771 ft | 462 kts | 120° |
| 2026-05-04 20:04 | 25.21049 | -78.86529 | 17046 ft | 463 kts | 120° |
| 2026-05-04 20:04 | 25.19569 | -78.83365 | 17323 ft | 464 kts | 120° |
| 2026-05-04 20:05 | 25.18086 | -78.80196 | 17599 ft | 465 kts | 120° |
| 2026-05-04 20:05 | 25.16598 | -78.77020 | 17879 ft | 466 kts | 120° |
| 2026-05-04 20:05 | 25.15108 | -78.73841 | 18164 ft | 466 kts | 120° |
| 2026-05-04 20:05 | 25.13617 | -78.70661 | 18422 ft | 467 kts | 120° |
| 2026-05-04 20:06 | 25.12121 | -78.67475 | 18664 ft | 467 kts | 120° |
| 2026-05-04 20:06 | 25.10625 | -78.64290 | 18909 ft | 468 kts | 120° |
| 2026-05-04 20:06 | 25.09127 | -78.61104 | 19154 ft | 468 kts | 120° |
| 2026-05-04 20:06 | 25.07630 | -78.57919 | 19404 ft | 468 kts | 120° |
| 2026-05-04 20:07 | 25.06129 | -78.54730 | 19661 ft | 468 kts | 120° |
| 2026-05-04 20:07 | 25.04628 | -78.51545 | 19912 ft | 469 kts | 121° |
| 2026-05-04 20:07 | 25.03124 | -78.48355 | 20165 ft | 469 kts | 121° |
| 2026-05-04 20:07 | 25.01620 | -78.45165 | 20418 ft | 469 kts | 121° |
| 2026-05-04 20:08 | 25.00116 | -78.41979 | 20678 ft | 469 kts | 121° |
| 2026-05-04 20:08 | 24.98608 | -78.38786 | 20942 ft | 469 kts | 121° |
| 2026-05-04 20:08 | 24.97101 | -78.35599 | 21204 ft | 469 kts | 121° |
| 2026-05-04 20:08 | 24.95593 | -78.32410 | 21464 ft | 469 kts | 121° |
| 2026-05-04 20:09 | 24.94087 | -78.29229 | 21736 ft | 469 kts | 121° |
| 2026-05-04 20:09 | 24.92578 | -78.26043 | 22001 ft | 469 kts | 121° |
| 2026-05-04 20:09 | 24.91069 | -78.22860 | 22272 ft | 469 kts | 121° |
| 2026-05-04 20:09 | 24.89561 | -78.19681 | 22551 ft | 468 kts | 121° |
| 2026-05-04 20:10 | 24.88052 | -78.16500 | 22830 ft | 468 kts | 121° |
| 2026-05-04 20:10 | 24.86544 | -78.13325 | 23114 ft | 468 kts | 121° |
| 2026-05-04 20:10 | 24.85037 | -78.10154 | 23396 ft | 467 kts | 121° |
| 2026-05-04 20:10 | 24.83531 | -78.06988 | 23659 ft | 467 kts | 121° |
| 2026-05-04 20:11 | 24.82022 | -78.03818 | 23890 ft | 467 kts | 121° |
| 2026-05-04 20:11 | 24.80517 | -78.00658 | 24134 ft | 466 kts | 121° |
| 2026-05-04 20:11 | 24.79011 | -77.97498 | 24373 ft | 466 kts | 121° |
| 2026-05-04 20:11 | 24.77507 | -77.94344 | 24617 ft | 465 kts | 121° |
| 2026-05-04 20:12 | 24.76003 | -77.91193 | 24862 ft | 465 kts | 121° |
| 2026-05-04 20:12 | 24.74500 | -77.88045 | 25108 ft | 465 kts | 121° |
| 2026-05-04 20:12 | 24.72997 | -77.84900 | 25360 ft | 465 kts | 121° |
| 2026-05-04 20:12 | 24.71493 | -77.81753 | 25609 ft | 464 kts | 121° |
| 2026-05-04 20:13 | 24.69991 | -77.78612 | 25858 ft | 464 kts | 121° |
| 2026-05-04 20:13 | 24.68489 | -77.75476 | 26112 ft | 463 kts | 121° |
| 2026-05-04 20:13 | 24.66967 | -77.72411 | 26350 ft | 462 kts | 124° |
| 2026-05-04 20:13 | 24.65287 | -77.69411 | 26614 ft | 460 kts | 126° |
| 2026-05-04 20:14 | 24.63556 | -77.66466 | 26886 ft | 458 kts | 127° |
| 2026-05-04 20:14 | 24.61806 | -77.63542 | 27161 ft | 458 kts | 127° |
| 2026-05-04 20:14 | 24.60056 | -77.60623 | 27406 ft | 457 kts | 127° |
| 2026-05-04 20:14 | 24.58313 | -77.57702 | 27684 ft | 456 kts | 127° |
| 2026-05-04 20:15 | 24.56583 | -77.54785 | 27954 ft | 455 kts | 127° |
| 2026-05-04 20:15 | 24.54864 | -77.51874 | 28223 ft | 454 kts | 127° |
| 2026-05-04 20:15 | 24.53154 | -77.48970 | 28496 ft | 452 kts | 127° |
| 2026-05-04 20:15 | 24.51449 | -77.46070 | 28778 ft | 451 kts | 127° |
| 2026-05-04 20:16 | 24.49751 | -77.43182 | 29052 ft | 449 kts | 127° |
| 2026-05-04 20:16 | 24.48061 | -77.40306 | 29330 ft | 447 kts | 127° |
| 2026-05-04 20:16 | 24.46376 | -77.37444 | 29613 ft | 445 kts | 127° |
| 2026-05-04 20:16 | 24.44699 | -77.34595 | 29895 ft | 443 kts | 127° |
| 2026-05-04 20:17 | 24.43030 | -77.31764 | 30159 ft | 441 kts | 127° |
| 2026-05-04 20:17 | 24.41364 | -77.28940 | 30295 ft | 442 kts | 127° |
| 2026-05-04 20:17 | 24.39680 | -77.26091 | 30257 ft | 448 kts | 127° |
| 2026-05-04 20:18 | 24.36260 | -77.20309 | 30354 ft | 455 kts | 127° |
| 2026-05-04 20:18 | 24.32786 | -77.14438 | 30420 ft | 463 kts | 127° |
| 2026-05-04 20:19 | 24.29252 | -77.08470 | 30494 ft | 470 kts | 127° |
| 2026-05-04 20:19 | 24.25664 | -77.02419 | 30554 ft | 477 kts | 127° |
| 2026-05-04 20:20 | 24.22019 | -76.96277 | 30610 ft | 484 kts | 127° |
| 2026-05-04 20:20 | 24.18320 | -76.90054 | 30675 ft | 491 kts | 127° |
| 2026-05-04 20:21 | 24.14600 | -76.83798 | 31096 ft | 486 kts | 127° |
| 2026-05-04 20:21 | 24.12761 | -76.80705 | 31356 ft | 483 kts | 127° |
| 2026-05-04 20:21 | 24.09126 | -76.74603 | 31912 ft | 475 kts | 127° |
| 2026-05-04 20:22 | 24.07329 | -76.71589 | 32183 ft | 471 kts | 128° |
| 2026-05-04 20:22 | 24.05548 | -76.68607 | 32462 ft | 466 kts | 128° |
| 2026-05-04 20:22 | 24.03782 | -76.65650 | 32745 ft | 462 kts | 128° |
| 2026-05-04 20:22 | 24.02030 | -76.62720 | 33026 ft | 457 kts | 128° |
| 2026-05-04 20:23 | 24.00301 | -76.59828 | 33310 ft | 452 kts | 128° |
| 2026-05-04 20:23 | 23.98588 | -76.56965 | 33535 ft | 449 kts | 128° |
| 2026-05-04 20:23 | 23.95154 | -76.51245 | 33408 ft | 457 kts | 128° |
| 2026-05-04 20:24 | 23.91654 | -76.45418 | 33449 ft | 461 kts | 128° |
| 2026-05-04 20:24 | 23.88121 | -76.39536 | 33454 ft | 465 kts | 128° |
| 2026-05-04 20:25 | 23.84550 | -76.33596 | 33447 ft | 470 kts | 128° |
| 2026-05-04 20:25 | 23.80945 | -76.27605 | 33502 ft | 472 kts | 128° |
| 2026-05-04 20:26 | 23.79153 | -76.24627 | 33777 ft | 467 kts | 129° |
| 2026-05-04 20:26 | 23.77375 | -76.21671 | 34024 ft | 463 kts | 129° |
| 2026-05-04 20:26 | 23.75616 | -76.18750 | 34187 ft | 460 kts | 129° |
| 2026-05-04 20:26 | 23.73848 | -76.15822 | 34165 ft | 463 kts | 129° |
| 2026-05-04 20:27 | 23.72065 | -76.12875 | 34062 ft | 468 kts | 129° |
| 2026-05-04 20:27 | 23.70265 | -76.09903 | 34011 ft | 471 kts | 129° |
| 2026-05-04 20:27 | 23.66659 | -76.03940 | 34235 ft | 467 kts | 129° |
| 2026-05-04 20:28 | 23.64899 | -76.01021 | 34537 ft | 455 kts | 129° |
| 2026-05-04 20:28 | 23.63187 | -75.98181 | 34728 ft | 443 kts | 130° |
| 2026-05-04 20:28 | 23.61518 | -75.95416 | 34970 ft | 430 kts | 130° |
| 2026-05-04 20:28 | 23.59890 | -75.92725 | 35146 ft | 419 kts | 130° |
| 2026-05-04 20:29 | 23.58303 | -75.90105 | 35275 ft | 410 kts | 130° |
| 2026-05-04 20:29 | 23.56717 | -75.87501 | 34976 ft | 416 kts | 130° |
| 2026-05-04 20:29 | 23.55106 | -75.84864 | 34715 ft | 419 kts | 130° |
| 2026-05-04 20:29 | 23.53504 | -75.82236 | 34724 ft | 413 kts | 130° |
| 2026-05-04 20:30 | 23.50318 | -75.77004 | 34256 ft | 424 kts | 130° |
| 2026-05-04 20:30 | 23.48633 | -75.74258 | 33448 ft | 449 kts | 130° |
| 2026-05-04 20:30 | 23.46849 | -75.71352 | 32623 ft | 474 kts | 129° |
| 2026-05-04 20:31 | 23.44993 | -75.68314 | 32245 ft | 486 kts | 128° |
| 2026-05-04 20:31 | 23.43135 | -75.65251 | 32556 ft | 479 kts | 128° |
| 2026-05-04 20:31 | 23.41340 | -75.62278 | 33397 ft | 459 kts | 129° |
| 2026-05-04 20:31 | 23.39622 | -75.59432 | 34126 ft | 444 kts | 130° |
| 2026-05-04 20:32 | 23.36192 | -75.53812 | 34044 ft | 451 kts | 130° |
| 2026-05-04 20:32 | 23.32666 | -75.48156 | 34150 ft | 446 kts | 131° |
| 2026-05-04 20:33 | 23.30917 | -75.45447 | 34573 ft | 429 kts | 132° |
| 2026-05-04 20:33 | 23.29222 | -75.42871 | 35028 ft | 409 kts | 134° |
| 2026-05-04 20:33 | 23.27577 | -75.40455 | 35485 ft | 387 kts | 135° |
| 2026-05-04 20:33 | 23.26004 | -75.38155 | 35712 ft | 370 kts | 136° |
| 2026-05-04 20:34 | 23.24485 | -75.36026 | 36126 ft | 343 kts | 138° |
| 2026-05-04 20:34 | 23.23067 | -75.34030 | 36280 ft | 326 kts | 136° |
| 2026-05-04 20:34 | 23.21739 | -75.32155 | 36264 ft | 306 kts | 139° |
| 2026-05-04 20:34 | 23.20500 | -75.30432 | 36524 ft | 268 kts | 141° |
| 2026-05-04 20:35 | 23.19364 | -75.28894 | 36153 ft | 261 kts | 143° |
| 2026-05-04 20:35 | 23.18114 | -75.27330 | 34936 ft | 296 kts | 142° |
| 2026-05-04 20:35 | 23.16730 | -75.25440 | 33667 ft | 339 kts | 133° |
| 2026-05-04 20:35 | 23.15361 | -75.23282 | 32899 ft | 360 kts | 131° |
| 2026-05-04 20:36 | 23.13911 | -75.20965 | 32172 ft | 383 kts | 131° |
| 2026-05-04 20:36 | 23.12340 | -75.18499 | 31366 ft | 409 kts | 130° |
| 2026-05-04 20:36 | 23.10680 | -75.15861 | 30590 ft | 440 kts | 121° |
| 2026-05-04 20:36 | 23.09530 | -75.12640 | 29750 ft | 474 kts | 109° |
| 2026-05-04 20:37 | 23.08381 | -75.09254 | 29537 ft | 480 kts | 118° |
| 2026-05-04 20:37 | 23.06833 | -75.06045 | 29635 ft | 479 kts | 124° |
| 2026-05-04 20:37 | 23.03777 | -75.01006 | 29697 ft | 483 kts | 129° |
| 2026-05-04 20:38 | 23.01813 | -74.98063 | 29988 ft | 479 kts | 130° |
| 2026-05-04 20:38 | 22.99844 | -74.95155 | 30214 ft | 478 kts | 130° |
| 2026-05-04 20:38 | 22.97886 | -74.92253 | 30429 ft | 476 kts | 130° |
| 2026-05-04 20:38 | 22.95948 | -74.89348 | 30657 ft | 474 kts | 130° |
| 2026-05-04 20:39 | 22.94035 | -74.86449 | 30879 ft | 472 kts | 130° |
| 2026-05-04 20:39 | 22.92136 | -74.83550 | 31099 ft | 470 kts | 130° |
| 2026-05-04 20:39 | 22.90255 | -74.80664 | 31327 ft | 468 kts | 130° |
| 2026-05-04 20:39 | 22.88384 | -74.77788 | 31490 ft | 467 kts | 130° |
| 2026-05-04 20:40 | 22.84592 | -74.71971 | 31484 ft | 475 kts | 130° |
| 2026-05-04 20:40 | 22.80744 | -74.66073 | 31470 ft | 482 kts | 130° |
| 2026-05-04 20:41 | 22.76839 | -74.60095 | 31466 ft | 489 kts | 130° |
| 2026-05-04 20:41 | 22.72883 | -74.54045 | 31454 ft | 495 kts | 130° |
| 2026-05-04 20:42 | 22.68881 | -74.47931 | 31453 ft | 501 kts | 130° |
| 2026-05-04 20:42 | 22.64829 | -74.41749 | 31468 ft | 505 kts | 130° |
| 2026-05-04 20:43 | 22.60741 | -74.35518 | 31452 ft | 510 kts | 130° |
| 2026-05-04 20:43 | 22.56626 | -74.29253 | 31463 ft | 512 kts | 130° |
| 2026-05-04 20:44 | 22.52498 | -74.22976 | 31462 ft | 512 kts | 130° |
| 2026-05-04 20:44 | 22.48364 | -74.16697 | 31452 ft | 512 kts | 130° |
| 2026-05-04 20:45 | 22.44234 | -74.10431 | 31453 ft | 511 kts | 130° |
| 2026-05-04 20:45 | 22.40115 | -74.04190 | 31449 ft | 509 kts | 130° |
| 2026-05-04 20:46 | 22.36008 | -73.97976 | 31453 ft | 507 kts | 130° |
| 2026-05-04 20:46 | 22.31911 | -73.91785 | 31450 ft | 506 kts | 130° |
| 2026-05-04 20:47 | 22.27823 | -73.85615 | 31452 ft | 504 kts | 130° |
| 2026-05-04 20:47 | 22.23746 | -73.79467 | 31448 ft | 503 kts | 130° |
| 2026-05-04 20:48 | 22.19675 | -73.73336 | 31456 ft | 502 kts | 130° |
| 2026-05-04 20:48 | 22.15636 | -73.67261 | 31451 ft | 501 kts | 130° |
| 2026-05-04 20:49 | 22.11567 | -73.61147 | 31457 ft | 501 kts | 130° |
| 2026-05-04 20:49 | 22.07497 | -73.55039 | 31456 ft | 502 kts | 130° |
| 2026-05-04 20:50 | 22.03394 | -73.48888 | 31448 ft | 502 kts | 130° |
| 2026-05-04 20:50 | 21.99342 | -73.42820 | 31455 ft | 502 kts | 130° |
| 2026-05-04 20:51 | 21.95257 | -73.36710 | 31448 ft | 503 kts | 130° |
| 2026-05-04 20:51 | 21.91163 | -73.30593 | 31452 ft | 503 kts | 130° |
| 2026-05-04 20:52 | 21.87071 | -73.24485 | 31456 ft | 503 kts | 130° |
| 2026-05-04 20:52 | 21.82972 | -73.18374 | 31450 ft | 504 kts | 130° |
| 2026-05-04 20:53 | 21.78871 | -73.12267 | 31453 ft | 503 kts | 130° |
| 2026-05-04 20:53 | 21.74769 | -73.06166 | 31451 ft | 503 kts | 130° |
| 2026-05-04 20:54 | 21.70665 | -73.00067 | 31449 ft | 503 kts | 130° |
| 2026-05-04 20:54 | 21.66565 | -72.93982 | 31449 ft | 502 kts | 130° |
| 2026-05-04 20:55 | 21.62467 | -72.87906 | 31446 ft | 502 kts | 130° |
| 2026-05-04 20:55 | 21.58370 | -72.81840 | 31446 ft | 501 kts | 130° |
| 2026-05-04 20:56 | 21.54279 | -72.75787 | 31450 ft | 501 kts | 130° |
| 2026-05-04 20:56 | 21.50185 | -72.69738 | 31446 ft | 500 kts | 130° |
| 2026-05-04 20:57 | 21.46099 | -72.63707 | 31450 ft | 500 kts | 130° |
| 2026-05-04 20:57 | 21.42006 | -72.57673 | 31445 ft | 500 kts | 130° |
| 2026-05-04 20:58 | 21.37916 | -72.51648 | 31449 ft | 499 kts | 130° |
| 2026-05-04 20:58 | 21.33823 | -72.45628 | 31449 ft | 499 kts | 130° |
| 2026-05-04 20:59 | 21.29729 | -72.39611 | 31440 ft | 499 kts | 130° |
| 2026-05-04 20:59 | 21.25634 | -72.33600 | 31448 ft | 499 kts | 130° |
| 2026-05-04 21:00 | 21.21532 | -72.27585 | 31440 ft | 500 kts | 130° |
| 2026-05-04 21:00 | 21.17428 | -72.21571 | 31440 ft | 500 kts | 130° |
| 2026-05-04 21:01 | 21.13324 | -72.15566 | 31451 ft | 500 kts | 129° |
| 2026-05-04 21:01 | 21.09216 | -72.09561 | 31440 ft | 500 kts | 129° |
| 2026-05-04 21:02 | 21.05103 | -72.03556 | 31439 ft | 500 kts | 129° |
| 2026-05-04 21:02 | 21.00988 | -71.97553 | 31439 ft | 500 kts | 129° |
| 2026-05-04 21:03 | 20.96872 | -71.91556 | 31440 ft | 500 kts | 129° |
| 2026-05-04 21:03 | 20.92781 | -71.85601 | 31444 ft | 500 kts | 129° |
| 2026-05-04 21:04 | 20.88663 | -71.79613 | 31439 ft | 500 kts | 129° |
| 2026-05-04 21:04 | 20.84543 | -71.73629 | 31441 ft | 500 kts | 129° |
| 2026-05-04 21:05 | 20.80422 | -71.67650 | 31441 ft | 499 kts | 129° |
| 2026-05-04 21:05 | 20.76300 | -71.61675 | 31437 ft | 499 kts | 129° |
| 2026-05-04 21:06 | 20.72176 | -71.55704 | 31442 ft | 499 kts | 129° |
| 2026-05-04 21:06 | 20.68050 | -71.49735 | 31439 ft | 499 kts | 129° |
| 2026-05-04 21:07 | 20.63920 | -71.43767 | 31297 ft | 503 kts | 129° |
| 2026-05-04 21:07 | 20.61832 | -71.40755 | 30933 ft | 505 kts | 129° |
| 2026-05-04 21:07 | 20.59752 | -71.37751 | 30697 ft | 501 kts | 129° |
| 2026-05-04 21:08 | 20.57682 | -71.34764 | 30412 ft | 499 kts | 129° |
| 2026-05-04 21:08 | 20.55618 | -71.31789 | 30140 ft | 499 kts | 129° |
| 2026-05-04 21:08 | 20.53548 | -71.28806 | 29849 ft | 500 kts | 129° |
| 2026-05-04 21:08 | 20.51481 | -71.25829 | 29561 ft | 499 kts | 129° |
| 2026-05-04 21:09 | 20.49421 | -71.22863 | 29348 ft | 497 kts | 129° |
| 2026-05-04 21:09 | 20.47361 | -71.19898 | 29229 ft | 497 kts | 129° |
| 2026-05-04 21:09 | 20.45301 | -71.16936 | 29341 ft | 497 kts | 129° |
| 2026-05-04 21:09 | 20.43225 | -71.13981 | 29303 ft | 499 kts | 131° |
| 2026-05-04 21:10 | 20.38200 | -71.08903 | 29156 ft | 498 kts | 147° |
| 2026-05-04 21:10 | 20.32542 | -71.04640 | 28977 ft | 497 kts | 148° |
| 2026-05-04 21:11 | 20.26910 | -71.00413 | 28975 ft | 495 kts | 147° |
| 2026-05-04 21:11 | 20.21291 | -70.96136 | 28984 ft | 498 kts | 147° |
| 2026-05-04 21:12 | 20.15652 | -70.91813 | 28992 ft | 500 kts | 147° |
| 2026-05-04 21:12 | 20.10000 | -70.87476 | 28987 ft | 501 kts | 147° |
| 2026-05-04 21:13 | 20.04340 | -70.83140 | 28992 ft | 501 kts | 147° |
| 2026-05-04 21:13 | 19.98682 | -70.78812 | 28983 ft | 501 kts | 147° |
| 2026-05-04 21:14 | 19.93026 | -70.74491 | 28983 ft | 500 kts | 147° |
| 2026-05-04 21:14 | 19.90198 | -70.72332 | 28788 ft | 502 kts | 147° |
| 2026-05-04 21:14 | 19.87353 | -70.70161 | 28087 ft | 504 kts | 146° |
| 2026-05-04 21:15 | 19.84523 | -70.68002 | 27673 ft | 498 kts | 146° |
| 2026-05-04 21:15 | 19.81711 | -70.65856 | 27142 ft | 498 kts | 146° |
| 2026-05-04 21:15 | 19.78890 | -70.63706 | 26613 ft | 501 kts | 146° |
| 2026-05-04 21:15 | 19.76051 | -70.61544 | 26034 ft | 503 kts | 146° |
| 2026-05-04 21:16 | 19.73201 | -70.59375 | 25446 ft | 505 kts | 146° |
| 2026-05-04 21:16 | 19.70352 | -70.57206 | 24742 ft | 503 kts | 146° |
| 2026-05-04 21:16 | 19.67517 | -70.55048 | 24089 ft | 501 kts | 146° |
| 2026-05-04 21:16 | 19.64688 | -70.52896 | 23431 ft | 499 kts | 146° |
| 2026-05-04 21:17 | 19.61892 | -70.50769 | 23121 ft | 487 kts | 146° |
| 2026-05-04 21:17 | 19.59214 | -70.48732 | 22994 ft | 473 kts | 146° |
| 2026-05-04 21:17 | 19.56563 | -70.46717 | 22209 ft | 467 kts | 146° |
| 2026-05-04 21:17 | 19.53949 | -70.44732 | 21543 ft | 458 kts | 147° |
| 2026-05-04 21:18 | 19.51379 | -70.42781 | 20818 ft | 451 kts | 147° |
| 2026-05-04 21:18 | 19.48847 | -70.40861 | 20148 ft | 444 kts | 147° |
| 2026-05-04 21:18 | 19.46354 | -70.38971 | 19465 ft | 438 kts | 147° |
| 2026-05-04 21:18 | 19.43886 | -70.37100 | 18820 ft | 433 kts | 147° |
| 2026-05-04 21:19 | 19.41450 | -70.35254 | 18152 ft | 428 kts | 147° |
| 2026-05-04 21:19 | 19.39045 | -70.33433 | 17424 ft | 423 kts | 147° |
| 2026-05-04 21:19 | 19.36662 | -70.31629 | 16706 ft | 418 kts | 147° |
| 2026-05-04 21:19 | 19.34313 | -70.29851 | 16013 ft | 413 kts | 147° |
| 2026-05-04 21:20 | 19.31993 | -70.28096 | 15358 ft | 407 kts | 146° |
| 2026-05-04 21:20 | 19.29704 | -70.26365 | 14721 ft | 402 kts | 146° |
| 2026-05-04 21:20 | 19.27454 | -70.24664 | 14278 ft | 391 kts | 146° |
| 2026-05-04 21:20 | 19.25270 | -70.23011 | 13863 ft | 381 kts | 146° |
| 2026-05-04 21:21 | 19.23147 | -70.21406 | 13505 ft | 370 kts | 146° |
| 2026-05-04 21:21 | 19.21076 | -70.19842 | 13119 ft | 362 kts | 146° |
| 2026-05-04 21:21 | 19.19048 | -70.18312 | 12757 ft | 355 kts | 146° |
| 2026-05-04 21:21 | 19.17033 | -70.16792 | 12381 ft | 359 kts | 146° |
| 2026-05-04 21:22 | 19.14992 | -70.15252 | 12024 ft | 362 kts | 146° |
| 2026-05-04 21:22 | 19.12953 | -70.13683 | 11654 ft | 362 kts | 143° |
| 2026-05-04 21:22 | 19.11015 | -70.12012 | 11307 ft | 357 kts | 141° |
| 2026-05-04 21:22 | 19.09773 | -70.10890 | 11064 ft | 352 kts | 140° |
| 2026-05-04 21:23 | 19.07950 | -70.09221 | 10703 ft | 341 kts | 140° |
| 2026-05-04 21:23 | 19.05591 | -70.07072 | 10235 ft | 329 kts | 140° |
| 2026-05-04 21:23 | 19.04449 | -70.06039 | 10042 ft | 323 kts | 140° |
| 2026-05-04 21:23 | 19.02764 | -70.04523 | 9747 ft | 313 kts | 141° |
| 2026-05-04 21:24 | 19.01126 | -70.03058 | 9431 ft | 304 kts | 141° |
| 2026-05-04 21:24 | 18.99532 | -70.01634 | 9121 ft | 296 kts | 141° |
| 2026-05-04 21:24 | 18.97983 | -70.00253 | 8808 ft | 287 kts | 141° |
| 2026-05-04 21:24 | 18.96476 | -69.98908 | 8512 ft | 280 kts | 141° |
| 2026-05-04 21:25 | 18.95007 | -69.97598 | 8285 ft | 272 kts | 141° |
| 2026-05-04 21:25 | 18.93587 | -69.96333 | 8081 ft | 263 kts | 141° |
| 2026-05-04 21:25 | 18.92216 | -69.95111 | 7894 ft | 254 kts | 141° |
| 2026-05-04 21:25 | 18.90862 | -69.93947 | 7674 ft | 248 kts | 145° |
| 2026-05-04 21:26 | 18.89445 | -69.92948 | 7501 ft | 242 kts | 148° |
| 2026-05-04 21:26 | 18.88030 | -69.92012 | 7253 ft | 239 kts | 148° |
| 2026-05-04 21:26 | 18.86625 | -69.91087 | 7031 ft | 236 kts | 148° |
| 2026-05-04 21:26 | 18.85245 | -69.90173 | 6786 ft | 232 kts | 148° |
| 2026-05-04 21:27 | 18.83892 | -69.89273 | 6537 ft | 227 kts | 148° |
| 2026-05-04 21:27 | 18.82586 | -69.88399 | 6373 ft | 219 kts | 148° |
| 2026-05-04 21:27 | 18.81299 | -69.87538 | 6127 ft | 219 kts | 148° |
| 2026-05-04 21:27 | 18.80016 | -69.86677 | 5897 ft | 217 kts | 147° |
| 2026-05-04 21:28 | 18.78755 | -69.85829 | 5663 ft | 212 kts | 147° |
| 2026-05-04 21:28 | 18.77528 | -69.85003 | 5450 ft | 206 kts | 147° |
| 2026-05-04 21:28 | 18.76334 | -69.84200 | 5233 ft | 202 kts | 147° |
| 2026-05-04 21:28 | 18.75163 | -69.83413 | 4996 ft | 198 kts | 147° |
| 2026-05-04 21:29 | 18.73999 | -69.82628 | 4768 ft | 199 kts | 147° |
| 2026-05-04 21:29 | 18.72832 | -69.81840 | 4579 ft | 199 kts | 147° |
| 2026-05-04 21:29 | 18.71662 | -69.81051 | 4351 ft | 199 kts | 147° |
| 2026-05-04 21:29 | 18.70508 | -69.80271 | 4118 ft | 195 kts | 147° |
| 2026-05-04 21:30 | 18.69380 | -69.79513 | 3928 ft | 197 kts | 147° |
| 2026-05-04 21:30 | 18.68198 | -69.78713 | 3696 ft | 200 kts | 147° |
| 2026-05-04 21:30 | 18.67044 | -69.77936 | 3457 ft | 198 kts | 148° |
| 2026-05-04 21:30 | 18.65906 | -69.77170 | 3261 ft | 191 kts | 148° |
| 2026-05-04 21:31 | 18.63684 | -69.75674 | 3109 ft | 192 kts | 148° |
| 2026-05-04 21:31 | 18.62578 | -69.74926 | 3105 ft | 188 kts | 149° |
| 2026-05-04 21:31 | 18.61459 | -69.74172 | 3069 ft | 191 kts | 148° |
| 2026-05-04 21:32 | 18.60350 | -69.73434 | 3084 ft | 188 kts | 151° |
| 2026-05-04 21:32 | 18.59178 | -69.72872 | 3110 ft | 181 kts | 159° |
| 2026-05-04 21:32 | 18.57999 | -69.72418 | 2912 ft | 177 kts | 161° |
| 2026-05-04 21:32 | 18.56876 | -69.72000 | 2727 ft | 169 kts | 161° |
| 2026-05-04 21:33 | 18.55776 | -69.71594 | 2523 ft | 167 kts | 161° |
| 2026-05-04 21:33 | 18.54677 | -69.71190 | 2294 ft | 168 kts | 161° |
| 2026-05-04 21:33 | 18.53586 | -69.70790 | 2076 ft | 164 kts | 161° |
| 2026-05-04 21:33 | 18.52522 | -69.70399 | 1840 ft | 158 kts | 161° |
| 2026-05-04 21:34 | 18.51482 | -69.70017 | 1643 ft | 160 kts | 161° |
| 2026-05-04 21:34 | 18.50434 | -69.69628 | 1537 ft | 162 kts | 160° |
| 2026-05-04 21:34 | 18.49354 | -69.69216 | 1336 ft | 166 kts | 161° |
| 2026-05-04 21:34 | 18.48276 | -69.68833 | 1119 ft | 161 kts | 161° |
| 2026-05-04 21:35 | 18.47251 | -69.68452 | 829 ft | 153 kts | 161° |
| 2026-05-04 21:35 | 18.46232 | -69.68080 | 570 ft | 158 kts | 162° |
| 2026-05-04 21:35 | 18.45189 | -69.67695 | 322 ft | 158 kts | 163° |
| 2026-05-04 21:35 | 18.44159 | -69.67328 | 54 ft | 151 kts | 162° |
| 2026-05-04 21:36 | 18.43285 | -69.67012 | 58 ft | 102 kts | 161° |
| 2026-05-04 21:36 | 18.42816 | -69.66841 | 59 ft | 59 kts | 161° |
| 2026-05-04 21:36 | 18.42469 | -69.66715 | 54 ft | 49 kts | 160° |
| 2026-05-04 21:36 | 18.42230 | -69.66667 | 62 ft | 23 kts | 223° |
| 2026-05-04 21:37 | 18.42232 | -69.66752 | 62 ft | 0 kts | 295° |
| 2026-05-04 21:37 | 18.42241 | -69.66772 | 55 ft | 0 kts | 295° |
| 2026-05-04 21:37 | 18.42270 | -69.66822 | 60 ft | 17 kts | 314° |
| 2026-05-04 21:38 | 18.42426 | -69.66891 | 59 ft | 32 kts | 341° |
| 2026-05-04 21:38 | 18.42676 | -69.66983 | 60 ft | 44 kts | 340° |
| 2026-05-04 21:38 | 18.42913 | -69.67072 | 55 ft | 23 kts | 331° |
| 2026-05-04 21:38 | 18.42958 | -69.67226 | 51 ft | 22 kts | 276° |
| 2026-05-04 21:39 | 18.42927 | -69.67357 | 58 ft | 6 kts | 237° |
| 2026-05-04 21:39 | 18.42914 | -69.67396 | 58 ft | 6 kts | 263° |
| 2026-05-04 21:39 | 18.42910 | -69.67429 | 52 ft | 2 kts | 261° |
| 2026-05-04 21:39 | 18.42910 | -69.67433 | 53 ft | 0 kts | 260° |
| 2026-05-04 21:40 | 18.42910 | -69.67434 | 53 ft | 0 kts | 260° |